createdAt,value
2022-12-25T00:01:06.375Z,8.80
2022-12-25T00:03:33.090Z,8.80
2022-12-25T00:05:59.862Z,8.80
2022-12-25T00:08:26.437Z,8.80
2022-12-25T00:11:10.930Z,8.80
2022-12-25T00:13:37.844Z,8.80
2022-12-25T00:16:10.756Z,8.70
2022-12-25T00:18:37.392Z,8.70
2022-12-25T00:21:05.649Z,8.70
2022-12-25T00:23:32.795Z,8.70
2022-12-25T00:25:59.397Z,11.20
2022-12-25T00:28:26.173Z,8.60
2022-12-25T00:30:52.826Z,8.60
2022-12-25T00:33:19.404Z,8.60
2022-12-25T00:35:56.373Z,8.50
2022-12-25T00:38:22.943Z,8.50
2022-12-25T00:40:49.505Z,8.50
2022-12-25T00:43:16.178Z,8.40
2022-12-25T00:45:42.814Z,8.40
2022-12-25T00:48:09.405Z,8.20
2022-12-25T00:50:38.407Z,8.20
2022-12-25T00:53:04.995Z,8.20
2022-12-25T00:55:31.621Z,8.20
2022-12-25T00:57:58.866Z,8.10
2022-12-25T01:00:25.483Z,8.10
2022-12-25T01:02:52.297Z,8.00
2022-12-25T01:05:18.988Z,8.10
2022-12-25T01:07:45.565Z,8.00
2022-12-25T01:10:24.466Z,7.90
2022-12-25T01:12:51.670Z,8.60
2022-12-25T01:15:19.002Z,7.90
2022-12-25T01:17:45.692Z,7.90
2022-12-25T01:20:13.037Z,7.80
2022-12-25T01:22:39.667Z,7.90
2022-12-25T01:25:07.165Z,7.80
2022-12-25T01:27:33.778Z,8.00
2022-12-25T01:30:00.419Z,10.20
2022-12-25T01:32:27.194Z,8.10
2022-12-25T01:34:56.043Z,8.10
2022-12-25T01:37:24.653Z,8.00
2022-12-25T01:39:51.402Z,8.00
2022-12-25T01:42:18.745Z,8.10
2022-12-25T01:44:45.318Z,8.10
2022-12-25T01:47:12.270Z,8.10
2022-12-25T01:49:40.941Z,8.20
2022-12-25T01:52:10.588Z,8.20
2022-12-25T01:54:42.745Z,8.20
2022-12-25T01:57:11.926Z,8.20
2022-12-25T01:59:39.206Z,8.30
2022-12-25T02:02:05.834Z,8.30
2022-12-25T02:04:40.056Z,8.30
2022-12-25T02:07:07.907Z,8.30
2022-12-25T02:09:34.749Z,9.80
2022-12-25T02:12:01.600Z,8.30
2022-12-25T02:14:29.922Z,10.20
2022-12-25T02:17:05.710Z,8.40
2022-12-25T02:19:47.685Z,8.50
2022-12-25T02:22:33.172Z,8.50
2022-12-25T02:25:02.851Z,8.60
2022-12-25T02:27:45.899Z,8.50
2022-12-25T02:30:12.796Z,8.60
2022-12-25T02:32:51.467Z,8.60
2022-12-25T02:35:20.616Z,8.60
2022-12-25T02:37:47.183Z,8.60
2022-12-25T02:40:16.959Z,8.60
2022-12-25T02:43:08.220Z,8.60
2022-12-25T02:45:56.461Z,8.60
2022-12-25T02:48:42.867Z,8.60
2022-12-25T02:51:29.929Z,8.60
2022-12-25T02:54:16.134Z,8.60
2022-12-25T02:57:02.658Z,8.60
2022-12-25T02:59:48.836Z,8.60
2022-12-25T03:02:34.508Z,8.60
2022-12-25T03:05:22.800Z,8.60
2022-12-25T03:07:49.819Z,8.60
2022-12-25T03:10:35.933Z,8.60
2022-12-25T03:13:07.942Z,8.60
2022-12-25T03:15:53.444Z,8.60
2022-12-25T03:18:24.207Z,8.70
2022-12-25T03:21:09.994Z,8.70
2022-12-25T03:23:56.684Z,8.70
2022-12-25T03:26:43.438Z,8.70
2022-12-25T03:29:10.033Z,8.70
2022-12-25T03:31:43.423Z,8.70
2022-12-25T03:34:34.838Z,8.70
2022-12-25T03:37:19.424Z,8.70
2022-12-25T03:39:55.258Z,8.80
2022-12-25T03:42:43.116Z,8.70
2022-12-25T03:45:36.913Z,8.70
2022-12-25T03:48:13.980Z,8.80
2022-12-25T03:51:02.476Z,8.70
2022-12-25T03:53:50.063Z,8.70
2022-12-25T03:56:36.174Z,8.80
2022-12-25T03:59:23.768Z,8.80
2022-12-25T04:02:09.889Z,8.80
2022-12-25T04:04:55.421Z,8.90
2022-12-25T04:07:40.503Z,8.80
2022-12-25T04:10:26.017Z,8.80
2022-12-25T04:13:10.984Z,8.80
2022-12-25T04:15:55.894Z,8.90
2022-12-25T04:18:41.038Z,8.80
2022-12-25T04:21:26.162Z,8.80
2022-12-25T04:24:11.317Z,8.80
2022-12-25T04:26:56.507Z,8.80
2022-12-25T04:29:41.627Z,8.80
2022-12-25T04:32:26.735Z,8.80
2022-12-25T04:35:12.018Z,8.80
2022-12-25T04:37:38.705Z,8.80
2022-12-25T04:40:06.366Z,8.80
2022-12-25T04:42:33.093Z,8.80
2022-12-25T04:44:59.668Z,8.80
2022-12-25T04:47:26.330Z,8.70
2022-12-25T04:49:52.978Z,9.00
2022-12-25T04:52:19.587Z,8.70
2022-12-25T04:54:46.183Z,8.70
2022-12-25T04:57:12.910Z,8.70
2022-12-25T04:59:39.485Z,8.70
2022-12-25T05:02:06.147Z,8.60
2022-12-25T05:04:32.868Z,8.60
2022-12-25T05:06:59.602Z,8.60
2022-12-25T05:09:26.709Z,8.60
2022-12-25T05:11:53.381Z,8.60
2022-12-25T05:14:19.959Z,8.60
2022-12-25T05:16:46.659Z,8.60
2022-12-25T05:19:13.410Z,8.60
2022-12-25T05:21:40.007Z,8.50
2022-12-25T05:24:06.731Z,8.50
2022-12-25T05:26:33.426Z,8.50
2022-12-25T05:29:00.199Z,8.40
2022-12-25T05:31:26.812Z,8.40
2022-12-25T05:33:53.556Z,8.40
2022-12-25T05:36:20.296Z,8.40
2022-12-25T05:38:46.890Z,8.30
2022-12-25T05:41:13.579Z,8.30
2022-12-25T05:43:40.153Z,8.40
2022-12-25T05:46:07.835Z,8.40
2022-12-25T05:48:36.833Z,8.40
2022-12-25T05:51:04.283Z,8.40
2022-12-25T05:53:31.033Z,8.40
2022-12-25T05:56:00.389Z,8.40
2022-12-25T05:58:27.130Z,8.40
2022-12-25T06:00:53.714Z,8.30
2022-12-25T06:03:20.441Z,8.30
2022-12-25T06:05:47.085Z,8.20
2022-12-25T06:08:13.666Z,8.10
2022-12-25T06:10:40.267Z,8.10
2022-12-25T06:13:06.886Z,8.10
2022-12-25T06:15:33.639Z,8.10
2022-12-25T06:18:00.557Z,8.10
2022-12-25T06:20:27.691Z,8.00
2022-12-25T06:22:54.284Z,8.00
2022-12-25T06:25:20.994Z,8.00
2022-12-25T06:27:47.568Z,8.00
2022-12-25T06:30:14.344Z,8.00
2022-12-25T06:32:40.915Z,8.00
2022-12-25T06:35:08.024Z,8.40
2022-12-25T06:37:34.694Z,8.00
2022-12-25T06:40:01.278Z,8.10
2022-12-25T06:42:27.958Z,8.00
2022-12-25T06:44:54.573Z,8.10
2022-12-25T06:47:21.156Z,8.10
2022-12-25T06:49:47.720Z,8.00
2022-12-25T06:52:14.320Z,8.10
2022-12-25T06:54:40.964Z,8.10
2022-12-25T06:57:07.637Z,8.10
2022-12-25T06:59:34.262Z,8.10
2022-12-25T07:02:00.951Z,10.20
2022-12-25T07:04:38.681Z,8.10
2022-12-25T07:07:09.069Z,8.20
2022-12-25T07:09:36.348Z,8.20
2022-12-25T07:12:04.196Z,8.20
2022-12-25T07:14:30.882Z,8.30
2022-12-25T07:16:57.712Z,8.30
2022-12-25T07:19:24.427Z,8.30
2022-12-25T07:21:51.082Z,8.30
2022-12-25T07:24:21.036Z,8.40
2022-12-25T07:26:47.734Z,8.50
2022-12-25T07:29:14.529Z,8.50
2022-12-25T07:31:41.151Z,8.50
2022-12-25T07:34:07.812Z,8.60
2022-12-25T07:36:34.394Z,8.60
2022-12-25T07:39:01.002Z,8.60
2022-12-25T07:41:27.599Z,8.70
2022-12-25T07:43:54.426Z,8.70
2022-12-25T07:46:21.567Z,8.80
2022-12-25T07:48:48.295Z,8.80
2022-12-25T07:51:16.024Z,8.90
2022-12-25T07:53:42.629Z,8.90
2022-12-25T07:56:14.058Z,9.00
2022-12-25T07:58:40.987Z,9.00
2022-12-25T08:01:10.007Z,9.00
2022-12-25T08:03:36.947Z,9.00
2022-12-25T08:06:05.197Z,9.10
2022-12-25T08:08:32.006Z,9.00
2022-12-25T08:10:58.769Z,9.00
2022-12-25T08:13:25.415Z,9.00
2022-12-25T08:15:57.239Z,9.10
2022-12-25T08:18:29.434Z,9.10
2022-12-25T08:20:56.673Z,9.10
2022-12-25T08:23:23.265Z,9.20
2022-12-25T08:25:49.843Z,9.30
2022-12-25T08:28:16.597Z,9.30
2022-12-25T08:30:43.227Z,9.40
2022-12-25T08:33:09.999Z,9.50
2022-12-25T08:35:36.914Z,9.50
2022-12-25T08:38:03.496Z,9.60
2022-12-25T08:40:30.213Z,9.60
2022-12-25T08:42:57.166Z,9.70
2022-12-25T08:45:27.379Z,9.70
2022-12-25T08:47:57.851Z,9.70
2022-12-25T08:50:24.873Z,9.70
2022-12-25T08:52:51.622Z,9.70
2022-12-25T08:55:18.350Z,9.70
2022-12-25T08:57:44.935Z,9.70
2022-12-25T09:00:11.765Z,9.80
2022-12-25T09:02:38.431Z,9.80
2022-12-25T09:05:05.517Z,9.90
2022-12-25T09:07:32.081Z,10.00
2022-12-25T09:09:58.651Z,10.00
2022-12-25T09:12:25.270Z,10.10
2022-12-25T09:14:51.857Z,10.20
2022-12-25T09:17:18.430Z,10.30
2022-12-25T09:19:45.035Z,10.30
2022-12-25T09:22:11.632Z,10.40
2022-12-25T09:24:39.280Z,10.40
2022-12-25T09:27:05.848Z,10.50
2022-12-25T09:29:32.459Z,10.50
2022-12-25T09:31:59.025Z,10.60
2022-12-25T09:34:25.656Z,10.70
2022-12-25T09:36:52.282Z,10.80
2022-12-25T09:39:18.913Z,10.90
2022-12-25T09:41:48.567Z,11.00
2022-12-25T09:44:18.407Z,11.10
2022-12-25T09:46:48.765Z,11.30
2022-12-25T09:49:30.459Z,11.40
2022-12-25T09:51:59.503Z,11.50
2022-12-25T09:54:36.588Z,11.60
2022-12-25T09:57:03.510Z,11.60
2022-12-25T09:59:30.099Z,11.70
2022-12-25T10:02:04.170Z,11.80
2022-12-25T10:04:45.421Z,11.80
2022-12-25T10:07:26.721Z,11.90
2022-12-25T10:10:12.100Z,11.90
2022-12-25T10:12:43.023Z,12.00
2022-12-25T10:15:18.424Z,12.00
2022-12-25T10:17:55.948Z,12.10
2022-12-25T10:20:22.548Z,12.20
2022-12-25T10:22:52.662Z,12.30
2022-12-25T10:25:21.079Z,12.40
2022-12-25T10:27:52.568Z,12.50
2022-12-25T10:30:20.681Z,12.50
2022-12-25T10:32:47.650Z,12.60
2022-12-25T10:35:15.262Z,12.70
2022-12-25T10:37:42.829Z,12.70
2022-12-25T10:40:32.812Z,12.70
2022-12-25T10:43:06.565Z,12.70
2022-12-25T10:45:42.172Z,12.70
2022-12-25T10:48:14.234Z,12.80
2022-12-25T10:50:43.915Z,12.90
2022-12-25T10:53:17.125Z,12.90
2022-12-25T10:55:53.107Z,13.00
2022-12-25T10:58:19.941Z,13.00
2022-12-25T11:00:51.927Z,13.10
2022-12-25T11:03:23.491Z,13.10
2022-12-25T11:05:51.460Z,13.20
2022-12-25T11:08:22.475Z,13.20
2022-12-25T11:10:53.639Z,13.40
2022-12-25T11:13:27.830Z,13.40
2022-12-25T11:16:05.163Z,15.30
2022-12-25T11:18:48.707Z,13.80
2022-12-25T11:21:19.482Z,14.00
2022-12-25T11:23:47.776Z,14.10
2022-12-25T11:26:15.097Z,14.10
2022-12-25T11:28:42.364Z,14.30
2022-12-25T11:31:12.981Z,14.50
2022-12-25T11:33:46.416Z,14.70
2022-12-25T11:36:17.466Z,14.80
2022-12-25T11:38:44.051Z,14.90
2022-12-25T11:41:11.409Z,15.10
2022-12-25T11:43:44.560Z,15.40
2022-12-25T11:46:17.437Z,15.90
2022-12-25T11:48:47.801Z,16.60
2022-12-25T11:51:15.445Z,17.20
2022-12-25T11:53:48.525Z,17.90
2022-12-25T11:56:17.309Z,18.20
2022-12-25T11:58:45.482Z,18.90
2022-12-25T12:01:17.186Z,19.40
2022-12-25T12:03:44.291Z,19.60
2022-12-25T12:06:32.599Z,19.60
2022-12-25T12:09:05.251Z,19.70
2022-12-25T12:11:33.481Z,19.80
2022-12-25T12:14:12.336Z,19.50
2022-12-25T12:16:39.028Z,19.30
2022-12-25T12:19:31.893Z,19.20
2022-12-25T12:22:00.105Z,18.60
2022-12-25T12:24:33.408Z,18.30
2022-12-25T12:27:07.641Z,18.40
2022-12-25T12:29:39.555Z,18.20
2022-12-25T12:32:19.882Z,18.30
2022-12-25T12:34:49.877Z,18.30
2022-12-25T12:37:24.480Z,18.20
2022-12-25T12:39:53.741Z,18.10
2022-12-25T12:42:22.775Z,18.10
2022-12-25T12:44:49.874Z,18.00
2022-12-25T12:47:27.927Z,18.00
2022-12-25T12:49:58.649Z,17.80
2022-12-25T12:52:34.103Z,17.70
2022-12-25T12:55:02.589Z,17.60
2022-12-25T12:57:32.740Z,17.50
2022-12-25T13:00:04.809Z,17.50
2022-12-25T13:02:35.609Z,17.40
2022-12-25T13:05:21.121Z,17.30
2022-12-25T13:07:47.706Z,17.20
2022-12-25T13:10:23.823Z,17.40
2022-12-25T13:12:54.388Z,17.90
2022-12-25T13:15:22.916Z,18.40
2022-12-25T13:17:50.091Z,18.70
2022-12-25T13:20:34.529Z,18.80
2022-12-25T13:23:01.146Z,18.80
2022-12-25T13:25:27.742Z,18.60
2022-12-25T13:27:55.680Z,18.40
2022-12-25T13:30:22.727Z,18.40
2022-12-25T13:32:49.688Z,18.30
2022-12-25T13:35:16.857Z,18.30
2022-12-25T13:37:44.142Z,18.10
2022-12-25T13:40:29.003Z,18.00
2022-12-25T13:42:58.467Z,17.70
2022-12-25T13:45:26.321Z,17.40
2022-12-25T13:47:55.535Z,17.30
2022-12-25T13:50:25.842Z,17.20
2022-12-25T13:52:54.981Z,17.20
2022-12-25T13:55:23.374Z,17.40
2022-12-25T13:57:54.453Z,17.00
2022-12-25T14:00:28.057Z,17.10
2022-12-25T14:02:54.941Z,17.00
2022-12-25T14:05:27.819Z,16.90
2022-12-25T14:07:57.582Z,16.60
2022-12-25T14:10:25.441Z,16.40
2022-12-25T14:12:53.202Z,16.20
2022-12-25T14:15:21.448Z,16.00
2022-12-25T14:17:49.510Z,15.80
2022-12-25T14:20:26.969Z,15.50
2022-12-25T14:22:55.489Z,15.30
2022-12-25T14:25:24.799Z,15.20
2022-12-25T14:27:52.287Z,15.00
2022-12-25T14:30:19.132Z,14.80
2022-12-25T14:32:50.676Z,14.60
2022-12-25T14:35:23.135Z,14.40
2022-12-25T14:37:54.153Z,14.30
2022-12-25T14:40:23.827Z,14.20
2022-12-25T14:43:00.710Z,14.00
2022-12-25T14:45:28.951Z,13.90
2022-12-25T14:47:57.236Z,13.70
2022-12-25T14:50:28.775Z,13.60
2022-12-25T14:52:56.005Z,13.50
2022-12-25T14:55:24.346Z,13.40
2022-12-25T14:57:52.962Z,13.20
2022-12-25T15:00:24.331Z,13.10
2022-12-25T15:02:52.739Z,12.90
2022-12-25T15:05:24.934Z,12.90
2022-12-25T15:08:02.015Z,12.70
2022-12-25T15:10:59.029Z,12.60
2022-12-25T15:13:17.825Z,12.40
2022-12-25T15:16:06.152Z,12.30
2022-12-25T15:18:40.133Z,12.10
2022-12-25T15:21:07.234Z,12.00
2022-12-25T15:23:33.937Z,11.90
2022-12-25T15:26:00.684Z,11.70
2022-12-25T15:28:27.274Z,11.70
2022-12-25T15:30:53.870Z,11.60
2022-12-25T15:33:20.871Z,11.50
2022-12-25T15:35:47.558Z,11.40
2022-12-25T15:38:14.397Z,11.30
2022-12-25T15:40:41.580Z,11.20
2022-12-25T15:43:14.660Z,11.20
2022-12-25T15:45:55.893Z,11.10
2022-12-25T15:48:22.553Z,12.40
2022-12-25T15:50:49.389Z,10.80
2022-12-25T15:53:16.000Z,10.80
2022-12-25T15:55:42.607Z,10.70
2022-12-25T15:58:12.854Z,10.70
2022-12-25T16:00:39.472Z,10.50
2022-12-25T16:03:06.196Z,10.60
2022-12-25T16:05:32.899Z,10.60
2022-12-25T16:07:59.480Z,10.50
2022-12-25T16:10:26.136Z,10.50
2022-12-25T16:12:52.715Z,10.40
2022-12-25T16:15:19.308Z,10.30
2022-12-25T16:17:45.884Z,10.20
2022-12-25T16:20:12.647Z,10.20
2022-12-25T16:22:41.972Z,10.10
2022-12-25T16:25:12.460Z,10.00
2022-12-25T16:27:39.046Z,9.90
2022-12-25T16:30:05.848Z,9.80
2022-12-25T16:32:32.570Z,9.70
2022-12-25T16:34:59.144Z,9.60
2022-12-25T16:37:27.178Z,9.60
2022-12-25T16:39:53.733Z,9.50
2022-12-25T16:42:20.315Z,9.50
2022-12-25T16:44:46.890Z,9.40
2022-12-25T16:47:13.471Z,9.40
2022-12-25T16:49:40.035Z,9.40
2022-12-25T16:52:06.636Z,9.30
2022-12-25T16:54:33.203Z,9.30
2022-12-25T16:56:59.872Z,9.30
2022-12-25T16:59:28.143Z,9.20
2022-12-25T17:01:54.883Z,9.10
2022-12-25T17:04:21.993Z,9.00
2022-12-25T17:06:48.709Z,9.00
2022-12-25T17:09:15.282Z,9.00
2022-12-25T17:11:41.964Z,8.90
2022-12-25T17:14:10.073Z,10.20
2022-12-25T17:16:37.575Z,8.70
2022-12-25T17:19:05.525Z,8.60
2022-12-25T17:21:35.002Z,8.60
2022-12-25T17:24:03.549Z,8.50
2022-12-25T17:26:31.974Z,8.50
2022-12-25T17:28:58.589Z,8.40
2022-12-25T17:31:25.352Z,8.30
2022-12-25T17:33:51.964Z,8.30
2022-12-25T17:36:19.802Z,8.20
2022-12-25T17:38:47.545Z,8.10
2022-12-25T17:41:15.174Z,6.50
2022-12-25T17:43:42.498Z,7.90
2022-12-25T17:46:11.345Z,7.90
2022-12-25T17:48:37.987Z,8.20
2022-12-25T17:51:08.349Z,7.70
2022-12-25T17:53:35.938Z,7.70
2022-12-25T17:56:02.756Z,7.70
2022-12-25T17:58:29.500Z,7.70
2022-12-25T18:00:56.069Z,7.70
2022-12-25T18:03:23.025Z,7.70
2022-12-25T18:05:49.741Z,7.80
2022-12-25T18:08:16.483Z,7.90
2022-12-25T18:10:43.522Z,8.00
2022-12-25T18:13:10.768Z,8.10
2022-12-25T18:15:38.411Z,8.20
2022-12-25T18:18:05.253Z,8.20
2022-12-25T18:20:39.340Z,8.40
2022-12-25T18:23:06.618Z,8.50
2022-12-25T18:25:33.809Z,8.60
2022-12-25T18:28:02.707Z,8.70
2022-12-25T18:30:29.551Z,8.70
2022-12-25T18:32:56.219Z,8.80
2022-12-25T18:35:23.334Z,8.90
2022-12-25T18:37:50.172Z,8.90
2022-12-25T18:40:16.812Z,8.80
2022-12-25T18:42:46.178Z,8.90
2022-12-25T18:45:13.955Z,8.80
2022-12-25T18:47:40.706Z,8.90
2022-12-25T18:50:08.016Z,8.90
2022-12-25T18:52:50.227Z,8.90
2022-12-25T18:55:18.165Z,8.80
2022-12-25T18:57:44.820Z,8.80
2022-12-25T19:00:11.649Z,8.70
2022-12-25T19:02:38.389Z,8.70
2022-12-25T19:05:06.030Z,8.60
2022-12-25T19:07:32.754Z,8.60
2022-12-25T19:09:59.390Z,8.60
2022-12-25T19:12:26.032Z,8.50
2022-12-25T19:14:53.443Z,8.50
2022-12-25T19:17:20.037Z,8.40
2022-12-25T19:19:46.711Z,8.40
2022-12-25T19:22:13.936Z,8.40
2022-12-25T19:24:40.656Z,11.80
2022-12-25T19:27:07.227Z,8.20
2022-12-25T19:29:33.877Z,8.20
2022-12-25T19:32:00.623Z,8.20
2022-12-25T19:34:27.461Z,8.10
2022-12-25T19:36:54.152Z,8.10
2022-12-25T19:39:20.970Z,8.20
2022-12-25T19:41:47.830Z,10.20
2022-12-25T19:44:14.539Z,8.40
2022-12-25T19:46:41.222Z,8.40
2022-12-25T19:49:10.483Z,8.40
2022-12-25T19:51:38.683Z,8.40
2022-12-25T19:54:05.857Z,8.30
2022-12-25T19:56:33.133Z,8.30
2022-12-25T19:58:59.993Z,8.20
2022-12-25T20:01:28.163Z,8.10
2022-12-25T20:03:54.916Z,8.00
2022-12-25T20:06:29.286Z,7.90
2022-12-25T20:08:57.631Z,7.90
2022-12-25T20:11:25.197Z,7.90
2022-12-25T20:13:52.110Z,7.90
2022-12-25T20:16:18.767Z,7.90
2022-12-25T20:18:45.426Z,8.00
2022-12-25T20:21:16.032Z,8.10
2022-12-25T20:23:43.113Z,8.20
2022-12-25T20:26:10.065Z,8.30
2022-12-25T20:28:40.060Z,8.30
2022-12-25T20:31:07.780Z,8.30
2022-12-25T20:33:34.539Z,8.40
2022-12-25T20:36:02.299Z,8.50
2022-12-25T20:38:29.234Z,8.60
2022-12-25T20:41:25.775Z,8.70
2022-12-25T20:43:46.453Z,8.80
2022-12-25T20:46:13.306Z,8.90
2022-12-25T20:48:40.190Z,10.90
2022-12-25T20:51:07.935Z,9.20
2022-12-25T20:53:34.914Z,9.30
2022-12-25T20:56:01.629Z,9.40
2022-12-25T20:58:28.339Z,9.50
2022-12-25T21:00:55.281Z,9.60
2022-12-25T21:03:22.185Z,9.70
2022-12-25T21:05:53.073Z,9.60
2022-12-25T21:08:21.009Z,9.60
2022-12-25T21:10:50.604Z,9.60
2022-12-25T21:13:17.490Z,9.50
2022-12-25T21:15:44.754Z,9.50
2022-12-25T21:18:11.359Z,9.40
2022-12-25T21:20:38.056Z,9.40
2022-12-25T21:23:04.752Z,9.30
2022-12-25T21:25:31.367Z,9.20
2022-12-25T21:27:58.034Z,9.10
2022-12-25T21:30:24.678Z,9.10
2022-12-25T21:33:26.841Z,9.00
2022-12-25T21:35:53.429Z,9.00
2022-12-25T21:38:20.027Z,8.80
2022-12-25T21:40:46.641Z,8.80
2022-12-25T21:43:16.176Z,8.70
2022-12-25T21:45:42.823Z,8.60
2022-12-25T21:48:09.445Z,8.60
2022-12-25T21:50:55.808Z,8.50
2022-12-25T21:53:22.372Z,8.50
2022-12-25T21:55:58.936Z,8.40
2022-12-25T21:58:25.613Z,8.40
2022-12-25T22:00:52.391Z,8.30
2022-12-25T22:03:19.253Z,8.30
2022-12-25T22:06:04.441Z,8.30
2022-12-25T22:08:31.984Z,8.30
2022-12-25T22:11:02.282Z,8.20
2022-12-25T22:13:47.465Z,8.10
2022-12-25T22:16:32.636Z,8.10
2022-12-25T22:19:18.092Z,8.00
2022-12-25T22:21:44.733Z,8.00
2022-12-25T22:24:11.329Z,7.80
2022-12-25T22:26:38.018Z,7.70
2022-12-25T22:29:04.610Z,7.60
2022-12-25T22:31:31.425Z,7.50
2022-12-25T22:33:58.039Z,7.50
2022-12-25T22:36:24.612Z,7.50
2022-12-25T22:38:51.188Z,7.40
2022-12-25T22:41:17.784Z,7.40
2022-12-25T22:44:15.771Z,7.30
2022-12-25T22:46:30.963Z,7.30
2022-12-25T22:48:57.594Z,7.30
2022-12-25T22:51:24.231Z,7.20
2022-12-25T22:53:50.917Z,9.10
2022-12-25T22:56:17.516Z,7.10
2022-12-25T22:58:44.316Z,9.90
2022-12-25T23:01:11.997Z,7.10
2022-12-25T23:03:38.726Z,7.00
2022-12-25T23:06:05.536Z,7.00
2022-12-25T23:08:32.197Z,7.20
2022-12-25T23:11:02.712Z,7.10
2022-12-25T23:13:48.013Z,7.20
2022-12-25T23:16:15.402Z,7.30
2022-12-25T23:19:00.762Z,7.40
2022-12-25T23:21:46.524Z,7.50
2022-12-25T23:24:31.540Z,7.60
2022-12-25T23:26:58.493Z,7.60
2022-12-25T23:29:37.267Z,7.80
2022-12-25T23:32:08.483Z,7.80
2022-12-25T23:34:35.903Z,7.80
2022-12-25T23:37:02.526Z,7.80
2022-12-25T23:39:29.113Z,7.80
2022-12-25T23:41:55.795Z,7.70
2022-12-25T23:44:22.726Z,7.60
2022-12-25T23:46:52.616Z,7.50
2022-12-25T23:49:20.657Z,7.50
2022-12-25T23:51:48.163Z,7.40
2022-12-25T23:54:19.990Z,7.30
2022-12-25T23:56:46.604Z,7.20
2022-12-25T23:59:13.642Z,7.20
